Terminal Aerodrome Forecast
Issued by NWS Louisville, KY

Home | Current Version | Previous Version | Text Only | Print | Product List | Glossary On
Versions: 1 2 3 4 5 6 7 8 9 10 11 12
000
FTUS43 KLMK 201735
TAFLEX
TAF
KLEX 201735Z 2018/2118 19008KT P6SM FEW250
     FM202300 18006KT P6SM FEW250
     FM210400 19009KT P6SM FEW250
     FM211300 20012G22KT P6SM FEW250=

USA.gov is the U.S. government's official web portal to all federal, state and local government web resources and services.